Time;durP1;ratioP1;P1;durP2;ratioP2;P2;SDS_P1;SDS_P2;PMS_P1;PMS_P2;Temp;Humidity;BMP_temperature;BMP_pressure;BME280_temperature;BME280_humidity;BME280_pressure;Samples;Min_cycle;Max_cycle;Signal;HPM_P1;HPM_P2
2022/01/26 00:00:54;;;;;;;8.48;4.60;;;-11.60;99.90;;;;;;4367933;32;20574;-64
2022/01/26 00:06:08;;;;;;;7.45;4.40;;;-11.40;99.90;;;;;;4365754;32;20558;-65
2022/01/26 00:08:37;;;;;;;7.43;4.22;;;-11.50;99.90;;;;;;4352932;32;20070;-65
2022/01/26 00:11:03;;;;;;;8.15;4.37;;;-11.50;99.90;;;;;;4363635;32;20085;-64
2022/01/26 00:13:30;;;;;;;6.82;4.57;;;-11.60;99.90;;;;;;4363489;32;20081;-64
2022/01/26 00:15:58;;;;;;;7.70;4.15;;;-11.50;99.90;;;;;;4363257;32;20089;-64
2022/01/26 00:18:29;;;;;;;8.25;4.60;;;-11.60;99.90;;;;;;4351276;32;20070;-66
2022/01/26 00:21:03;;;;;;;6.68;3.92;;;-11.40;99.90;;;;;;4377406;32;20070;-64
2022/01/26 00:23:51;;;;;;;6.60;4.05;;;-11.50;99.90;;;;;;4377583;32;20097;-64
2022/01/26 00:26:30;;;;;;;6.75;4.20;;;-11.50;99.90;;;;;;4366042;32;20142;-65
2022/01/26 00:39:37;;;;;;;7.87;4.57;;;-11.40;99.90;;;;;;4365368;32;20089;-64
2022/01/26 00:42:04;;;;;;;9.02;4.85;;;-11.50;99.90;;;;;;4376997;32;20078;-65
2022/01/26 00:44:39;;;;;;;7.72;4.25;;;-11.50;99.90;;;;;;4363047;32;20074;-63
2022/01/26 00:47:05;;;;;;;7.68;4.50;;;-11.50;99.90;;;;;;4381622;32;20162;-64
2022/01/26 00:49:32;;;;;;;7.97;4.57;;;-11.60;99.90;;;;;;4387276;32;20082;-64
2022/01/26 00:51:58;;;;;;;6.95;4.47;;;-11.60;99.90;;;;;;4377796;32;20085;-63
2022/01/26 00:54:27;;;;;;;7.18;4.62;;;-11.60;99.90;;;;;;4377382;32;20085;-64
2022/01/26 00:56:53;;;;;;;7.00;4.05;;;-11.90;99.90;;;;;;4364062;32;20169;-63
2022/01/26 00:59:19;;;;;;;7.78;5.05;;;-11.60;99.90;;;;;;4363023;32;20101;-64
2022/01/26 01:01:46;;;;;;;7.10;4.20;;;-11.50;99.90;;;;;;4376776;32;20077;-63
2022/01/26 01:04:13;;;;;;;7.12;4.65;;;-11.40;99.90;;;;;;4377330;32;20086;-63
2022/01/26 01:06:47;;;;;;;6.72;4.28;;;-11.60;99.90;;;;;;4377039;32;20505;-63
2022/01/26 01:09:15;;;;;;;7.55;4.40;;;-11.40;99.90;;;;;;4364959;32;20062;-64
2022/01/26 01:11:42;;;;;;;8.30;4.60;;;-11.60;99.90;;;;;;4366252;32;20062;-63
2022/01/26 01:14:10;;;;;;;6.78;4.05;;;-11.50;99.90;;;;;;4380140;32;20078;-64
2022/01/26 01:16:36;;;;;;;8.38;4.57;;;-11.50;99.90;;;;;;4350576;32;20174;-65
2022/01/26 01:29:45;;;;;;;8.80;4.57;;;-11.60;99.90;;;;;;4376341;32;20082;-64
2022/01/26 01:32:26;;;;;;;7.07;4.62;;;-11.60;99.90;;;;;;4351077;32;20066;-65
2022/01/26 01:34:53;;;;;;;9.95;4.60;;;-11.60;99.90;;;;;;4376235;32;20077;-64
2022/01/26 01:37:19;;;;;;;7.75;4.40;;;-11.60;99.90;;;;;;4376252;32;20080;-65
2022/01/26 01:39:45;;;;;;;7.82;4.47;;;-11.60;99.90;;;;;;4376067;32;20063;-64
2022/01/26 01:42:12;;;;;;;7.07;4.28;;;-11.60;99.90;;;;;;4376292;32;20151;-64
2022/01/26 01:44:39;;;;;;;8.52;4.75;;;-11.50;99.90;;;;;;4376011;32;20152;-64
2022/01/26 01:47:07;;;;;;;7.65;4.12;;;-11.50;99.90;;;;;;4374911;32;20062;-64
2022/01/26 01:49:34;;;;;;;6.35;3.97;;;-11.30;99.90;;;;;;4350083;32;20097;-65
2022/01/26 01:52:04;;;;;;;7.60;4.32;;;-11.60;99.90;;;;;;4362255;32;20546;-65
2022/01/26 01:54:31;;;;;;;6.50;4.25;;;-11.40;99.90;;;;;;4362889;32;20519;-64
2022/01/26 01:56:59;;;;;;;8.32;4.60;;;-11.40;99.90;;;;;;4350162;32;20058;-64
2022/01/26 01:59:32;;;;;;;8.35;5.12;;;-11.30;99.90;;;;;;4362500;32;20501;-63
2022/01/26 02:02:00;;;;;;;8.05;4.37;;;-11.40;99.90;;;;;;4350237;32;20069;-65
2022/01/26 02:04:27;;;;;;;7.15;4.72;;;-11.20;99.90;;;;;;4362139;32;20090;-64
2022/01/26 02:06:53;;;;;;;7.57;4.12;;;-11.30;99.90;;;;;;4349775;32;20101;-64
2022/01/26 02:09:19;;;;;;;10.50;4.65;;;-11.20;99.90;;;;;;4350553;32;20162;-64
2022/01/26 02:11:56;;;;;;;7.62;4.90;;;-11.30;99.90;;;;;;4362158;32;20520;-64
2022/01/26 02:14:36;;;;;;;7.07;4.28;;;-11.40;99.90;;;;;;4350411;32;20089;-64
2022/01/26 02:17:17;;;;;;;7.82;4.35;;;-11.40;99.90;;;;;;4351755;32;20078;-64
2022/01/26 02:55:17;;;;;;;7.57;4.35;;;-11.30;99.90;;;;;;4364937;32;20101;-65
2022/01/26 02:58:21;;;;;;;7.40;4.50;;;-11.40;99.90;;;;;;4378349;32;20541;-65
2022/01/26 03:00:45;;;;;;;7.82;4.72;;;-11.30;99.90;;;;;;4378451;32;20070;-63
2022/01/26 03:03:25;;;;;;;8.65;4.60;;;-11.10;99.90;;;;;;4365169;32;20546;-63
2022/01/26 03:06:06;;;;;;;8.48;4.60;;;-11.40;99.90;;;;;;4353971;32;20101;-64
2022/01/26 03:08:37;;;;;;;6.57;4.25;;;-11.30;99.90;;;;;;4364666;32;20078;-64
2022/01/26 03:11:09;;;;;;;8.63;5.07;;;-11.30;99.90;;;;;;4351790;32;20460;-64
2022/01/26 03:13:40;;;;;;;8.27;4.12;;;-11.30;99.90;;;;;;4364918;32;20072;-65
2022/01/26 03:16:19;;;;;;;7.35;4.87;;;-11.40;99.90;;;;;;4378288;32;20153;-64
2022/01/26 03:18:56;;;;;;;7.35;4.60;;;-11.20;99.90;;;;;;4377053;32;20186;-65
2022/01/26 03:21:37;;;;;;;7.50;4.22;;;-11.20;99.90;;;;;;4365791;32;20496;-64
2022/01/26 03:34:28;;;;;;;7.57;4.57;;;-11.30;99.90;;;;;;4364629;32;20149;-64
2022/01/26 03:36:58;;;;;;;7.97;4.78;;;-11.40;99.90;;;;;;4363889;32;20535;-65
2022/01/26 03:39:26;;;;;;;6.60;4.03;;;-11.40;99.90;;;;;;4365026;32;20074;-63
2022/01/26 03:42:05;;;;;;;8.48;4.53;;;-11.40;99.90;;;;;;4376856;32;20077;-63
2022/01/26 03:44:35;;;;;;;7.68;4.87;;;-11.30;99.90;;;;;;4380059;32;20074;-64
2022/01/26 03:47:04;;;;;;;8.93;5.12;;;-11.40;99.90;;;;;;4356874;32;20086;-64
2022/01/26 03:49:30;;;;;;;7.78;4.68;;;-11.30;99.90;;;;;;4378812;32;20169;-65
2022/01/26 03:51:56;;;;;;;6.87;4.53;;;-11.20;99.90;;;;;;4377981;32;20168;-64
2022/01/26 03:54:23;;;;;;;7.70;4.18;;;-11.20;99.90;;;;;;4364707;32;20101;-63
2022/01/26 03:56:49;;;;;;;8.88;4.82;;;-11.20;99.90;;;;;;4364219;32;20160;-64
2022/01/26 03:59:17;;;;;;;7.93;4.47;;;-11.30;99.90;;;;;;4363899;32;20090;-65
2022/01/26 04:01:43;;;;;;;7.50;4.95;;;-11.30;99.90;;;;;;4352022;32;20500;-64
2022/01/26 04:04:10;;;;;;;7.00;4.75;;;-11.30;99.90;;;;;;4363704;32;20508;-64
2022/01/26 04:06:36;;;;;;;7.60;4.72;;;-11.30;99.90;;;;;;4378604;32;20070;-65
2022/01/26 04:09:07;;;;;;;8.52;4.37;;;-11.30;99.90;;;;;;4352176;32;20082;-63
2022/01/26 04:11:39;;;;;;;8.23;4.22;;;-11.30;99.90;;;;;;4363963;32;20089;-64
2022/01/26 04:14:10;;;;;;;8.88;4.40;;;-11.40;99.90;;;;;;4370682;32;20104;-64
2022/01/26 04:16:39;;;;;;;9.50;4.68;;;-11.40;99.90;;;;;;4360211;32;20086;-64
2022/01/26 04:19:06;;;;;;;6.90;4.10;;;-11.30;99.90;;;;;;4370304;32;20085;-64
2022/01/26 04:24:20;;;;;;;8.98;4.85;;;-11.30;99.90;;;;;;4367325;32;20579;-64
2022/01/26 04:26:56;;;;;;;7.85;4.80;;;-11.30;99.90;;;;;;4377175;32;20070;-63
2022/01/26 04:29:28;;;;;;;8.77;4.82;;;-11.20;99.90;;;;;;4351860;32;20186;-63
2022/01/26 04:31:56;;;;;;;9.27;4.75;;;-11.30;99.90;;;;;;4363903;32;20085;-64
2022/01/26 04:34:23;;;;;;;7.60;4.18;;;-11.30;99.90;;;;;;4363423;32;20093;-63
2022/01/26 04:36:56;;;;;;;8.77;4.85;;;-11.20;99.90;;;;;;4363388;32;20086;-64
2022/01/26 04:39:28;;;;;;;7.93;4.50;;;-11.20;99.90;;;;;;4377585;32;20146;-65
2022/01/26 04:42:00;;;;;;;7.28;3.72;;;-11.30;99.90;;;;;;4363879;32;20070;-63
2022/01/26 04:44:32;;;;;;;6.53;4.03;;;-11.30;99.90;;;;;;4376492;32;20168;-66
2022/01/26 04:46:58;;;;;;;7.15;3.92;;;-11.30;99.90;;;;;;4377234;32;20495;-64
2022/01/26 04:49:25;;;;;;;6.57;3.78;;;-11.30;99.90;;;;;;4362397;32;20113;-64
2022/01/26 04:51:51;;;;;;;7.65;3.28;;;-11.30;99.90;;;;;;4362943;32;20132;-66
2022/01/26 04:54:18;;;;;;;7.15;3.65;;;-11.10;99.90;;;;;;4363599;32;20078;-63
2022/01/26 04:56:44;;;;;;;8.05;3.92;;;-11.30;99.90;;;;;;4376989;32;20062;-64
2022/01/26 04:59:10;;;;;;;7.50;4.47;;;-11.30;99.90;;;;;;4363697;32;20075;-66
2022/01/26 05:01:37;;;;;;;8.07;3.90;;;-11.20;99.90;;;;;;4350703;32;20071;-66
2022/01/26 05:04:04;;;;;;;6.90;4.45;;;-11.50;99.90;;;;;;4376880;32;20078;-64
2022/01/26 05:06:30;;;;;;;7.10;3.92;;;-11.30;99.90;;;;;;4350614;32;20179;-64
2022/01/26 05:08:56;;;;;;;9.27;4.37;;;-11.40;99.90;;;;;;4377003;32;20077;-64
2022/01/26 05:11:56;;;;;;;9.32;3.95;;;-11.30;99.90;;;;;;4362727;32;20537;-64
2022/01/26 05:14:16;;;;;;;7.00;3.87;;;-11.20;99.90;;;;;;4373993;32;20093;-63
2022/01/26 05:16:42;;;;;;;7.25;4.22;;;-11.20;99.90;;;;;;4362647;32;20525;-64
2022/01/26 05:19:08;;;;;;;8.10;3.95;;;-11.30;99.90;;;;;;4375463;32;20070;-65
2022/01/26 05:21:35;;;;;;;6.87;3.70;;;-11.20;99.90;;;;;;4362536;32;20082;-64
2022/01/26 05:24:02;;;;;;;8.05;4.40;;;-11.20;99.90;;;;;;4376671;32;20588;-64
2022/01/26 05:26:29;;;;;;;7.20;4.28;;;-11.30;99.90;;;;;;4337903;32;20248;-64
2022/01/26 05:28:55;;;;;;;7.00;4.00;;;-11.20;99.90;;;;;;4350020;32;20090;-66
2022/01/26 05:31:22;;;;;;;9.02;4.30;;;-11.20;99.90;;;;;;4362925;32;20079;-64
2022/01/26 05:33:48;;;;;;;8.50;5.10;;;-11.20;99.90;;;;;;4363024;32;20102;-66
2022/01/26 05:36:15;;;;;;;8.18;4.32;;;-10.90;99.90;;;;;;4362528;32;20456;-65
2022/01/26 05:38:41;;;;;;;7.68;4.15;;;-11.10;99.90;;;;;;4350843;32;20183;-63
2022/01/26 05:41:09;;;;;;;7.87;4.53;;;-10.90;99.90;;;;;;4376131;32;20074;-64
2022/01/26 05:43:36;;;;;;;6.70;4.15;;;-10.90;99.90;;;;;;4375782;32;20097;-64
2022/01/26 05:46:48;;;;;;;8.02;4.37;;;-11.20;99.90;;;;;;4362293;32;20085;-66
2022/01/26 05:48:55;;;;;;;5.22;3.08;;;-11.20;99.90;;;;;;4358682;32;20094;-64
2022/01/26 05:51:22;;;;;;;6.97;4.05;;;-11.00;99.90;;;;;;4376005;32;20070;-64
2022/01/26 05:53:48;;;;;;;7.50;4.47;;;-11.00;99.90;;;;;;4350071;32;20134;-63
2022/01/26 05:56:14;;;;;;;6.10;3.70;;;-11.20;99.90;;;;;;4362928;32;20537;-64
2022/01/26 05:58:41;;;;;;;6.82;4.43;;;-11.00;99.90;;;;;;4363037;32;20182;-63
2022/01/26 06:01:08;;;;;;;6.70;4.18;;;-11.20;99.90;;;;;;4352959;32;20070;-64
2022/01/26 06:03:34;;;;;;;6.72;4.32;;;-11.10;99.90;;;;;;4365518;32;20065;-63
2022/01/26 06:06:01;;;;;;;7.30;4.70;;;-11.00;99.90;;;;;;4353387;32;20069;-64
2022/01/26 06:08:27;;;;;;;7.07;4.07;;;-10.90;99.90;;;;;;4365356;32;20089;-63
2022/01/26 06:10:55;;;;;;;7.75;4.60;;;-10.90;99.90;;;;;;4377886;32;20090;-63
2022/01/26 06:13:22;;;;;;;7.60;4.55;;;-11.00;99.90;;;;;;4365349;32;20225;-64
2022/01/26 06:15:48;;;;;;;8.00;3.80;;;-11.10;99.90;;;;;;4377659;32;20078;-64
2022/01/26 06:18:14;;;;;;;9.10;5.22;;;-11.10;99.90;;;;;;4377620;32;20122;-63
2022/01/26 06:20:41;;;;;;;8.52;4.90;;;-11.00;99.90;;;;;;4352762;32;20148;-64
2022/01/26 06:23:07;;;;;;;7.00;4.25;;;-10.90;99.90;;;;;;4364935;32;20096;-63
2022/01/26 06:25:34;;;;;;;8.00;4.53;;;-11.00;99.90;;;;;;4365315;32;20070;-64
2022/01/26 06:28:09;;;;;;;7.65;4.85;;;-11.00;99.90;;;;;;4352380;32;20074;-64
2022/01/26 06:30:36;;;;;;;7.55;4.20;;;-10.90;99.90;;;;;;4365175;32;20239;-64
2022/01/26 06:33:03;;;;;;;7.97;4.20;;;-10.80;99.90;;;;;;4352720;32;20077;-63
2022/01/26 06:35:30;;;;;;;6.93;3.90;;;-10.80;99.90;;;;;;4352511;32;20078;-64
2022/01/26 06:37:56;;;;;;;8.10;4.40;;;-10.50;99.90;;;;;;4378717;32;20074;-63
2022/01/26 06:40:24;;;;;;;6.97;4.03;;;-10.50;99.90;;;;;;4377836;32;20155;-63
2022/01/26 06:42:58;;;;;;;10.43;4.95;;;-10.40;99.90;;;;;;4352396;32;20078;-64
2022/01/26 06:45:28;;;;;;;6.97;3.80;;;-10.40;99.90;;;;;;4378372;32;20160;-63
2022/01/26 06:50:44;;;;;;;8.10;3.92;;;-10.60;99.90;;;;;;4343772;32;20089;-63
2022/01/26 06:53:13;;;;;;;7.47;4.18;;;-10.60;99.90;;;;;;4364949;32;20081;-63
2022/01/26 06:55:39;;;;;;;7.37;4.60;;;-10.60;99.90;;;;;;4352777;32;20070;-63
2022/01/26 06:58:06;;;;;;;9.25;5.10;;;-10.40;99.90;;;;;;4364559;32;20524;-64
2022/01/26 07:00:32;;;;;;;7.45;4.35;;;-10.30;99.90;;;;;;4364866;32;20082;-63
2022/01/26 07:02:59;;;;;;;8.65;5.05;;;-10.30;99.90;;;;;;4364438;32;20082;-63
2022/01/26 07:05:26;;;;;;;9.15;4.62;;;-10.20;99.90;;;;;;4378384;32;20074;-64
2022/01/26 07:07:52;;;;;;;6.62;4.28;;;-10.30;99.90;;;;;;4376787;32;20169;-63
2022/01/26 07:10:19;;;;;;;7.87;4.53;;;-10.30;99.90;;;;;;4364311;32;20076;-63
2022/01/26 07:12:45;;;;;;;7.28;4.65;;;-10.40;99.90;;;;;;4363746;32;20082;-63
2022/01/26 07:23:42;;;;;;;6.57;4.10;;;-10.40;99.90;;;;;;4378420;32;20073;-63
2022/01/26 07:26:09;;;;;;;9.15;4.15;;;-10.40;99.90;;;;;;4378136;32;20084;-63
2022/01/26 07:28:39;;;;;;;9.57;4.65;;;-10.30;99.90;;;;;;4376418;32;20156;-64
2022/01/26 07:31:07;;;;;;;8.35;4.68;;;-10.40;99.90;;;;;;4351858;32;20101;-65
2022/01/26 07:33:34;;;;;;;7.55;4.57;;;-10.10;99.90;;;;;;4363888;32;20086;-64
2022/01/26 07:36:01;;;;;;;8.50;4.07;;;-10.00;99.90;;;;;;4351406;32;20094;-64
2022/01/26 07:38:27;;;;;;;8.48;4.40;;;-10.00;99.90;;;;;;4363794;32;20077;-64
2022/01/26 07:40:54;;;;;;;8.35;4.72;;;-9.80;99.90;;;;;;4364011;32;20183;-64
2022/01/26 07:43:22;;;;;;;8.50;4.47;;;-9.80;99.90;;;;;;4363637;32;20090;-63
2022/01/26 07:45:48;;;;;;;7.25;4.43;;;-9.90;99.90;;;;;;4363832;32;20070;-62
2022/01/26 07:48:15;;;;;;;7.87;4.05;;;-9.70;99.90;;;;;;4363851;32;20074;-63
2022/01/26 07:50:41;;;;;;;9.77;4.75;;;-9.70;99.90;;;;;;4363512;32;20145;-66
2022/01/26 07:53:14;;;;;;;7.53;4.30;;;-10.10;99.90;;;;;;4351739;32;20227;-63
2022/01/26 07:55:40;;;;;;;7.85;4.47;;;-9.80;99.90;;;;;;4351672;32;20520;-63
2022/01/26 07:58:09;;;;;;;7.25;4.62;;;-10.10;99.90;;;;;;4376419;32;20242;-64
2022/01/26 08:00:36;;;;;;;9.05;4.82;;;-9.70;99.90;;;;;;4363670;32;20096;-64
2022/01/26 08:03:03;;;;;;;9.45;4.62;;;-9.60;99.90;;;;;;4363630;32;20167;-63
2022/01/26 08:05:30;;;;;;;9.95;4.65;;;-9.80;99.90;;;;;;4351064;32;20073;-63
2022/01/26 08:07:56;;;;;;;7.53;4.75;;;-9.90;99.90;;;;;;4363169;32;20501;-63
2022/01/26 08:10:23;;;;;;;9.70;4.75;;;-9.60;99.90;;;;;;4363629;32;20154;-62
2022/01/26 08:12:49;;;;;;;8.90;5.32;;;-9.40;99.90;;;;;;4363866;32;20093;-63
2022/01/26 08:15:16;;;;;;;7.12;4.70;;;-9.50;99.90;;;;;;4364626;32;20081;-65
2022/01/26 08:17:42;;;;;;;6.87;4.40;;;-9.90;99.90;;;;;;4353217;32;20089;-62
2022/01/26 08:20:10;;;;;;;8.23;4.78;;;-9.60;99.90;;;;;;4364148;32;20082;-63
2022/01/26 08:22:38;;;;;;;8.25;5.25;;;-9.50;99.90;;;;;;4363057;32;20113;-63
2022/01/26 08:25:05;;;;;;;7.00;4.65;;;-9.10;99.90;;;;;;4362982;32;20089;-63
2022/01/26 08:27:39;;;;;;;9.25;4.72;;;-9.10;99.90;;;;;;4377000;32;20072;-63
2022/01/26 08:30:11;;;;;;;8.93;4.20;;;-9.10;99.90;;;;;;4364607;32;20088;-63
2022/01/26 08:32:38;;;;;;;7.60;4.30;;;-9.30;99.90;;;;;;4351812;32;20156;-63
2022/01/26 08:35:05;;;;;;;6.70;3.97;;;-9.20;99.90;;;;;;4350852;32;20081;-64
2022/01/26 08:37:32;;;;;;;7.30;3.90;;;-9.60;99.90;;;;;;4363037;32;20063;-63
2022/01/26 08:39:58;;;;;;;6.35;4.28;;;-9.60;99.90;;;;;;4376770;32;20151;-63
2022/01/26 08:42:25;;;;;;;8.27;4.32;;;-9.70;99.90;;;;;;4363050;32;20162;-64
2022/01/26 08:44:53;;;;;;;8.15;3.67;;;-9.60;99.90;;;;;;4350328;32;20078;-63
2022/01/26 08:47:19;;;;;;;9.63;4.32;;;-9.70;99.90;;;;;;4363523;32;20097;-64
2022/01/26 08:49:46;;;;;;;7.20;3.50;;;-9.80;99.90;;;;;;4375461;32;20075;-62
2022/01/26 08:52:12;;;;;;;8.52;4.10;;;-10.00;99.90;;;;;;4375334;32;20066;-63
2022/01/26 08:54:39;;;;;;;7.07;3.62;;;-10.20;99.90;;;;;;4350750;32;20093;-63
2022/01/26 08:57:05;;;;;;;6.37;3.60;;;-9.90;99.90;;;;;;4375069;32;20090;-63
2022/01/26 08:59:32;;;;;;;6.87;4.22;;;-10.10;99.90;;;;;;4351702;32;20513;-63
2022/01/26 09:01:58;;;;;;;8.98;4.68;;;-10.10;99.90;;;;;;4363150;32;20082;-63
2022/01/26 09:04:25;;;;;;;7.32;4.12;;;-10.20;99.90;;;;;;4350495;32;20509;-65
2022/01/26 09:06:54;;;;;;;9.05;4.78;;;-10.00;99.90;;;;;;4362787;32;20074;-63
2022/01/26 09:09:22;;;;;;;7.80;4.57;;;-9.90;99.90;;;;;;4376735;32;20087;-63
2022/01/26 09:11:50;;;;;;;7.87;4.82;;;-9.60;99.90;;;;;;4362778;32;20096;-64
2022/01/26 09:14:20;;;;;;;8.20;4.82;;;-9.80;99.90;;;;;;4362895;32;20093;-64
2022/01/26 09:16:49;;;;;;;9.68;4.35;;;-9.70;99.90;;;;;;4375329;32;20071;-73
2022/01/26 09:19:26;;;;;;;9.63;3.92;;;-10.00;99.90;;;;;;4350672;32;20497;-65
2022/01/26 09:21:56;;;;;;;8.45;3.75;;;-9.80;99.90;;;;;;4351215;32;20477;-63
2022/01/26 09:24:25;;;;;;;8.43;4.18;;;-9.70;99.90;;;;;;4363577;32;20093;-65
2022/01/26 09:26:52;;;;;;;8.38;4.85;;;-10.00;99.90;;;;;;4362593;32;20074;-66
2022/01/26 09:29:18;;;;;;;9.15;4.90;;;-9.80;99.90;;;;;;4375413;32;20067;-64
2022/01/26 09:31:47;;;;;;;10.75;5.47;;;-9.90;99.90;;;;;;4376358;32;20108;-65
2022/01/26 09:34:20;;;;;;;10.82;5.65;;;-9.90;99.90;;;;;;4374821;32;20145;-66
2022/01/26 09:36:48;;;;;;;10.07;5.18;;;-9.40;99.90;;;;;;4349942;32;20109;-65
2022/01/26 09:39:17;;;;;;;9.82;5.20;;;-9.40;99.90;;;;;;4362930;32;20062;-65
2022/01/26 09:41:49;;;;;;;8.90;5.53;;;-9.20;99.90;;;;;;4362638;32;20082;-63
2022/01/26 09:44:18;;;;;;;9.45;4.75;;;-9.40;99.90;;;;;;4362150;32;20090;-64
2022/01/26 09:46:45;;;;;;;9.68;5.20;;;-9.80;99.90;;;;;;4349928;32;20090;-64
2022/01/26 09:49:16;;;;;;;9.93;5.45;;;-9.50;99.90;;;;;;4350467;32;20085;-63
2022/01/26 09:51:47;;;;;;;9.75;5.20;;;-9.30;99.90;;;;;;4350028;32;20155;-64
2022/01/26 09:54:17;;;;;;;10.80;5.10;;;-9.70;99.90;;;;;;4362883;32;20097;-64
2022/01/26 09:56:52;;;;;;;9.23;5.37;;;-9.50;99.90;;;;;;4354285;32;20146;-65
2022/01/26 09:59:19;;;;;;;11.57;5.15;;;-9.10;99.90;;;;;;4379937;32;20069;-63
2022/01/26 10:01:49;;;;;;;10.68;5.35;;;-9.30;99.90;;;;;;4367146;32;20081;-65
2022/01/26 10:04:28;;;;;;;9.15;5.00;;;-9.60;99.90;;;;;;4365114;32;20093;-64
2022/01/26 10:16:02;;;;;;;13.95;5.25;;;-9.90;99.90;;;;;;4352242;32;20089;-64
2022/01/26 10:18:32;;;;;;;10.70;5.15;;;-9.70;99.90;;;;;;4363081;32;20093;-64
2022/01/26 10:21:01;;;;;;;11.32;5.32;;;-9.80;99.90;;;;;;4362205;32;20067;-64
2022/01/26 10:23:40;;;;;;;10.63;5.68;;;-9.70;99.90;;;;;;4362864;32;20079;-65
2022/01/26 10:26:13;;;;;;;9.85;5.07;;;-9.80;99.90;;;;;;4362198;32;20081;-64
2022/01/26 10:28:46;;;;;;;11.10;5.65;;;-9.40;99.90;;;;;;4362151;32;20172;-65
2022/01/26 10:31:18;;;;;;;9.82;5.10;;;-9.60;99.90;;;;;;4349788;32;20074;-66
2022/01/26 10:33:58;;;;;;;10.73;5.40;;;-9.60;99.90;;;;;;4363136;32;20101;-64
2022/01/26 10:36:47;;;;;;;9.25;5.20;;;-9.30;99.90;;;;;;4362661;32;20066;-64
2022/01/26 10:39:23;;;;;;;8.98;5.70;;;-9.20;99.90;;;;;;4349986;32;20146;-65
2022/01/26 10:41:52;;;;;;;11.70;5.68;;;-9.30;99.90;;;;;;4350033;32;20078;-65
2022/01/26 10:44:31;;;;;;;9.98;5.90;;;-9.40;99.90;;;;;;4349564;32;20084;-65
2022/01/26 10:47:03;;;;;;;8.48;5.35;;;-9.30;99.90;;;;;;4376168;32;20183;-66
2022/01/26 10:52:40;;;;;;;9.77;5.45;;;-9.50;99.90;;;;;;4365341;32;20077;-65
2022/01/26 10:55:09;;;;;;;10.27;6.07;;;-9.40;99.90;;;;;;4364361;32;20081;-65
2022/01/26 10:57:36;;;;;;;10.18;5.55;;;-9.40;99.90;;;;;;4351989;32;20539;-65
2022/01/26 11:00:06;;;;;;;11.45;5.37;;;-9.50;99.90;;;;;;4378180;32;20147;-64
2022/01/26 11:02:34;;;;;;;11.73;5.32;;;-9.30;99.90;;;;;;4352692;32;20123;-64
2022/01/26 11:05:01;;;;;;;9.38;5.18;;;-9.50;99.90;;;;;;4352060;32;20077;-65
2022/01/26 11:07:40;;;;;;;12.37;5.85;;;-9.50;99.90;;;;;;4364924;32;20159;-65
2022/01/26 11:10:08;;;;;;;11.35;5.40;;;-9.50;99.90;;;;;;4364096;32;20622;-63
2022/01/26 11:12:40;;;;;;;10.10;5.82;;;-9.40;99.90;;;;;;4364546;32;20077;-64
2022/01/26 11:15:12;;;;;;;8.95;5.10;;;-9.50;99.90;;;;;;4364562;32;20071;-65
2022/01/26 11:17:43;;;;;;;11.27;5.22;;;-9.50;99.90;;;;;;4351894;32;20070;-64
2022/01/26 11:20:33;;;;;;;9.15;3.83;;;-9.80;99.90;;;;;;4364231;32;20078;-64
2022/01/26 11:23:05;;;;;;;15.63;5.95;;;-9.70;99.90;;;;;;4352600;32;20167;-65
2022/01/26 11:25:43;;;;;;;9.88;5.43;;;-9.80;99.90;;;;;;4364149;32;20158;-65
2022/01/26 11:28:22;;;;;;;10.73;5.72;;;-9.70;99.90;;;;;;4352595;32;20090;-65
2022/01/26 11:30:51;;;;;;;10.85;5.53;;;-9.70;99.90;;;;;;4351719;32;20521;-65
2022/01/26 11:33:24;;;;;;;11.35;5.60;;;-9.60;99.90;;;;;;4351339;32;20066;-64
2022/01/26 11:35:53;;;;;;;12.05;5.82;;;-9.50;99.90;;;;;;4352404;32;20070;-65
2022/01/26 11:38:50;;;;;;;13.15;5.70;;;-9.50;99.90;;;;;;4364480;32;20105;-65
2022/01/26 11:47:29;;;;;;;13.50;5.60;;;-9.80;99.90;;;;;;4364295;32;20074;-64
2022/01/26 11:50:09;;;;;;;10.65;5.15;;;-9.80;99.90;;;;;;4375922;32;20642;-64
2022/01/26 11:52:40;;;;;;;12.43;6.12;;;-9.70;99.90;;;;;;4363660;32;20523;-64
2022/01/26 11:55:27;;;;;;;11.18;5.40;;;-9.90;99.90;;;;;;4351749;32;20070;-63
2022/01/26 11:57:55;;;;;;;12.37;5.72;;;-9.90;99.90;;;;;;4363478;32;20148;-64
2022/01/26 12:00:46;;;;;;;9.77;5.07;;;-9.90;99.90;;;;;;4351323;32;20117;-65
2022/01/26 12:03:34;;;;;;;10.57;4.72;;;-9.90;99.90;;;;;;4351856;32;20147;-64
2022/01/26 12:06:02;;;;;;;10.43;4.72;;;-9.80;99.90;;;;;;4350902;32;20162;-63
2022/01/26 12:08:39;;;;;;;8.98;4.05;;;-9.90;99.90;;;;;;4338993;32;20579;-63
2022/01/26 12:11:10;;;;;;;11.27;5.45;;;-9.80;99.90;;;;;;4364024;32;20126;-63
2022/01/26 12:13:38;;;;;;;10.15;4.30;;;-9.80;99.90;;;;;;4364222;32;20071;-66
2022/01/26 12:16:14;;;;;;;11.35;5.62;;;-9.80;99.90;;;;;;4375975;32;20101;-65
2022/01/26 12:35:59;;;;;;;12.80;5.53;;;-9.80;99.90;;;;;;4364545;32;20170;-63
2022/01/26 12:38:41;;;;;;;9.88;5.12;;;-9.90;99.90;;;;;;4354363;32;20082;-64
2022/01/26 12:43:54;;;;;;;11.55;6.20;;;-9.80;99.90;;;;;;4364428;32;20496;-63
2022/01/26 12:46:31;;;;;;;9.25;5.15;;;-9.70;99.90;;;;;;4350645;32;20437;-65
2022/01/26 12:49:10;;;;;;;9.48;4.65;;;-9.90;99.90;;;;;;4363570;32;20079;-65
2022/01/26 12:51:53;;;;;;;10.65;4.30;;;-9.80;99.90;;;;;;4362741;32;20085;-64
2022/01/26 12:54:20;;;;;;;9.57;4.50;;;-9.80;99.90;;;;;;4363239;32;20070;-64
2022/01/26 12:56:47;;;;;;;10.40;5.60;;;-9.90;99.90;;;;;;4365704;32;20092;-67
2022/01/26 12:59:19;;;;;;;12.80;5.90;;;-9.80;99.90;;;;;;4351973;32;20582;-63
2022/01/26 13:01:50;;;;;;;10.93;5.60;;;-10.10;99.90;;;;;;4363892;32;20105;-63
2022/01/26 13:04:16;;;;;;;9.15;5.32;;;-10.20;99.90;;;;;;4350687;32;20096;-64
2022/01/26 13:06:51;;;;;;;10.32;4.57;;;-10.20;99.90;;;;;;4376793;32;20078;-64
2022/01/26 13:09:29;;;;;;;11.35;6.10;;;-10.20;99.90;;;;;;4349910;32;20613;-64
2022/01/26 13:11:59;;;;;;;10.52;4.90;;;-10.20;99.90;;;;;;4351414;32;20074;-65
2022/01/26 13:14:41;;;;;;;12.65;6.18;;;-10.10;99.90;;;;;;4363015;32;20090;-64
2022/01/26 13:17:19;;;;;;;12.35;6.00;;;-10.10;99.90;;;;;;4376797;32;20069;-64
2022/01/26 13:21:04;;;;;;;12.85;6.25;;;-10.10;99.90;;;;;;4350670;32;20148;-64
2022/01/26 13:33:42;;;;;;;10.60;4.75;;;-10.20;99.90;;;;;;4350713;32;20457;-63
2022/01/26 13:36:32;;;;;;;11.10;4.82;;;-10.20;99.90;;;;;;4376281;32;20073;-63
2022/01/26 14:00:16;;;;;;;12.18;5.80;;;-10.30;99.90;;;;;;4362656;32;20082;-65
2022/01/26 14:02:43;;;;;;;10.80;5.65;;;-10.20;99.90;;;;;;4362919;32;20110;-63
2022/01/26 14:05:10;;;;;;;10.63;5.50;;;-10.40;99.90;;;;;;4374724;32;20108;-63
2022/01/26 14:07:36;;;;;;;12.70;5.50;;;-10.30;99.90;;;;;;4350132;32;20153;-64
2022/01/26 14:10:04;;;;;;;11.80;5.70;;;-10.40;99.90;;;;;;4374515;32;20063;-64
2022/01/26 14:12:36;;;;;;;12.43;5.15;;;-10.30;99.90;;;;;;4349967;32;20089;-64
2022/01/26 14:15:07;;;;;;;11.30;5.45;;;-10.40;99.90;;;;;;4362683;32;20142;-63
2022/01/26 14:20:15;;;;;;;10.77;5.82;;;-10.50;99.90;;;;;;4362653;32;20539;-65
2022/01/26 14:25:27;;;;;;;11.05;5.03;;;-10.40;99.90;;;;;;4353099;32;20116;-63
2022/01/26 14:27:57;;;;;;;15.77;6.57;;;-10.40;99.90;;;;;;4368020;32;20119;-64
2022/01/26 14:30:38;;;;;;;14.27;5.95;;;-10.30;99.90;;;;;;4365612;32;20082;-63
2022/01/26 14:33:28;;;;;;;10.68;5.50;;;-10.40;99.90;;;;;;4366667;32;20085;-63
2022/01/26 14:55:14;;;;;;;10.82;5.20;;;-10.50;99.90;;;;;;4345131;32;20071;-63
2022/01/26 15:00:58;;;;;;;9.70;5.95;;;-10.60;99.90;;;;;;4379138;32;20058;-63
2022/01/26 15:09:13;;;;;;;12.20;5.82;;;-10.60;99.90;;;;;;4379864;32;20089;-64
2022/01/26 15:30:12;;;;;;;12.43;5.65;;;-10.70;99.90;;;;;;4367057;32;20077;-63
2022/01/26 15:40:48;;;;;;;9.95;5.43;;;-10.60;99.90;;;;;;4367175;32;20091;-63
2022/01/26 15:48:55;;;;;;;10.73;5.30;;;-10.60;99.90;;;;;;4354298;32;20101;-63
2022/01/26 16:21:11;;;;;;;9.57;5.28;;;-10.60;99.90;;;;;;4375891;32;20090;-64
2022/01/26 16:27:02;;;;;;;13.68;5.82;;;-10.50;99.90;;;;;;4335674;32;20604;-64
2022/01/26 18:16:29;;;;;;;11.50;5.60;;;-10.40;99.90;;;;;;4364756;32;20451;-64
2022/01/26 18:32:54;;;;;;;12.40;6.47;;;-10.40;99.90;;;;;;4364327;32;20481;-64
2022/01/26 18:49:25;;;;;;;13.50;6.65;;;-10.50;99.90;;;;;;4335127;32;20086;-64
2022/01/26 18:51:55;;;;;;;11.45;6.30;;;-10.40;99.90;;;;;;4362118;32;20094;-63
2022/01/26 18:54:27;;;;;;;14.18;6.78;;;-10.40;99.90;;;;;;4362622;32;20105;-63
2022/01/26 18:56:56;;;;;;;13.18;6.72;;;-10.50;99.90;;;;;;4349626;32;20077;-64
2022/01/26 18:59:24;;;;;;;12.55;7.05;;;-10.40;99.90;;;;;;4349835;32;20433;-64
2022/01/26 19:01:52;;;;;;;11.70;6.35;;;-10.50;99.90;;;;;;4362171;32;20082;-65
2022/01/26 19:07:03;;;;;;;14.30;6.37;;;-10.50;99.90;;;;;;3831747;37;20069;-65
2022/01/26 19:09:33;;;;;;;12.25;6.93;;;-10.40;99.90;;;;;;4390452;32;20085;-65
2022/01/26 19:12:02;;;;;;;12.20;6.62;;;-10.60;99.90;;;;;;4378896;32;20101;-65
2022/01/26 19:14:35;;;;;;;10.77;6.05;;;-10.40;99.90;;;;;;4390461;32;20152;-64
2022/01/26 19:24:52;;;;;;;13.43;6.37;;;-10.50;99.90;;;;;;4363595;32;20105;-63
2022/01/26 19:27:49;;;;;;;12.05;6.80;;;-10.50;99.90;;;;;;4364697;32;20094;-64
2022/01/26 19:46:48;;;;;;;13.40;6.37;;;-10.60;99.90;;;;;;4375141;32;20515;-64
2022/01/26 19:54:26;;;;;;;10.68;6.07;;;-10.70;99.90;;;;;;4375045;32;20071;-64